sensor_id;sensor_type;location;lat;lon;timestamp;pressure;altitude;pressure_sealevel;temperature;humidity
6216;BME280;3141;49.234;9.326;2024-03-08T00:00:20;99688.69;;;7.28;63.35
6216;BME280;3141;49.234;9.326;2024-03-08T00:01:03;99679.63;;;7.12;63.03
6216;BME280;3141;49.234;9.326;2024-03-08T00:01:45;99681.44;;;7.21;63.18
6216;BME280;3141;49.234;9.326;2024-03-08T00:02:28;99679.91;;;7.18;63.10
6216;BME280;3141;49.234;9.326;2024-03-08T00:03:11;99678.13;;;7.19;63.18
6216;BME280;3141;49.234;9.326;2024-03-08T00:03:53;99679.53;;;7.23;63.62
6216;BME280;3141;49.234;9.326;2024-03-08T00:04:35;99671.78;;;7.21;63.63
6216;BME280;3141;49.234;9.326;2024-03-08T00:05:18;99674.97;;;7.25;63.28
6216;BME280;3141;49.234;9.326;2024-03-08T00:06:00;99680.34;;;7.23;63.47
6216;BME280;3141;49.234;9.326;2024-03-08T00:06:42;99678.69;;;7.32;63.41
6216;BME280;3141;49.234;9.326;2024-03-08T00:07:28;99675.38;;;7.30;62.77
6216;BME280;3141;49.234;9.326;2024-03-08T00:08:10;99680.09;;;7.36;63.11
6216;BME280;3141;49.234;9.326;2024-03-08T00:08:53;99682.03;;;7.34;62.77
6216;BME280;3141;49.234;9.326;2024-03-08T00:09:35;99681.78;;;7.37;62.51
6216;BME280;3141;49.234;9.326;2024-03-08T00:10:18;99681.88;;;7.35;62.84
6216;BME280;3141;49.234;9.326;2024-03-08T00:11:03;99677.69;;;7.23;63.47
6216;BME280;3141;49.234;9.326;2024-03-08T00:11:45;99679.47;;;7.13;63.52
6216;BME280;3141;49.234;9.326;2024-03-08T00:12:28;99677.00;;;7.12;63.88
6216;BME280;3141;49.234;9.326;2024-03-08T00:13:10;99675.19;;;7.12;63.91
6216;BME280;3141;49.234;9.326;2024-03-08T00:13:53;99677.00;;;7.12;63.90
6216;BME280;3141;49.234;9.326;2024-03-08T00:14:36;99676.47;;;7.18;63.92
6216;BME280;3141;49.234;9.326;2024-03-08T00:15:19;99677.28;;;7.18;63.88
6216;BME280;3141;49.234;9.326;2024-03-08T00:16:01;99677.56;;;7.15;63.73
6216;BME280;3141;49.234;9.326;2024-03-08T00:16:44;99679.22;;;7.16;64.23
6216;BME280;3141;49.234;9.326;2024-03-08T00:17:26;99673.09;;;7.06;63.88
6216;BME280;3141;49.234;9.326;2024-03-08T00:18:09;99673.53;;;7.11;63.81
6216;BME280;3141;49.234;9.326;2024-03-08T00:18:52;99672.00;;;7.09;63.73
6216;BME280;3141;49.234;9.326;2024-03-08T00:19:34;99672.16;;;7.17;63.39
6216;BME280;3141;49.234;9.326;2024-03-08T00:20:17;99674.78;;;7.17;63.53
6216;BME280;3141;49.234;9.326;2024-03-08T00:21:02;99675.91;;;7.14;64.00
6216;BME280;3141;49.234;9.326;2024-03-08T00:21:44;99674.34;;;7.12;63.74
6216;BME280;3141;49.234;9.326;2024-03-08T00:22:27;99668.56;;;7.18;63.73
6216;BME280;3141;49.234;9.326;2024-03-08T00:23:09;99672.00;;;7.09;64.13
6216;BME280;3141;49.234;9.326;2024-03-08T00:23:53;99667.88;;;7.16;63.55
6216;BME280;3141;49.234;9.326;2024-03-08T00:24:36;99675.63;;;7.17;63.80
6216;BME280;3141;49.234;9.326;2024-03-08T00:25:19;99672.84;;;7.19;63.90
6216;BME280;3141;49.234;9.326;2024-03-08T00:26:02;99675.50;;;7.19;63.73
6216;BME280;3141;49.234;9.326;2024-03-08T00:26:46;99667.88;;;7.16;63.55
6216;BME280;3141;49.234;9.326;2024-03-08T00:27:28;99670.50;;;7.16;63.95
6216;BME280;3141;49.234;9.326;2024-03-08T00:28:12;99666.97;;;6.96;64.45
6216;BME280;3141;49.234;9.326;2024-03-08T00:28:57;99668.09;;;6.93;64.10
6216;BME280;3141;49.234;9.326;2024-03-08T00:29:39;99665.31;;;6.95;64.17
6216;BME280;3141;49.234;9.326;2024-03-08T00:30:23;99673.34;;;6.93;64.06
6216;BME280;3141;49.234;9.326;2024-03-08T00:31:07;99667.94;;;6.95;63.85
6216;BME280;3141;49.234;9.326;2024-03-08T00:31:49;99654.53;;;6.88;64.14
6216;BME280;3141;49.234;9.326;2024-03-08T00:32:32;99668.47;;;6.89;64.00
6216;BME280;3141;49.234;9.326;2024-03-08T00:33:14;99657.81;;;6.81;63.79
6216;BME280;3141;49.234;9.326;2024-03-08T00:33:57;99662.22;;;6.80;64.84
6216;BME280;3141;49.234;9.326;2024-03-08T00:34:40;99654.75;;;6.85;64.53
6216;BME280;3141;49.234;9.326;2024-03-08T00:35:22;99666.63;;;6.80;64.43
6216;BME280;3141;49.234;9.326;2024-03-08T00:36:05;99660.69;;;6.78;64.56
6216;BME280;3141;49.234;9.326;2024-03-08T00:36:47;99653.25;;;6.83;64.38
6216;BME280;3141;49.234;9.326;2024-03-08T00:37:31;99656.69;;;6.83;64.22
6216;BME280;3141;49.234;9.326;2024-03-08T00:38:13;99651.75;;;6.90;64.12
6216;BME280;3141;49.234;9.326;2024-03-08T00:38:55;99649.50;;;6.85;64.07
6216;BME280;3141;49.234;9.326;2024-03-08T00:39:38;99650.22;;;6.87;64.18
6216;BME280;3141;49.234;9.326;2024-03-08T00:40:20;99652.00;;;6.87;64.38
6216;BME280;3141;49.234;9.326;2024-03-08T00:41:02;99655.03;;;6.82;64.37
6216;BME280;3141;49.234;9.326;2024-03-08T00:41:45;99649.06;;;6.80;64.63
6216;BME280;3141;49.234;9.326;2024-03-08T00:42:27;99649.50;;;6.85;63.60
6216;BME280;3141;49.234;9.326;2024-03-08T00:43:10;99646.50;;;6.90;64.38
6216;BME280;3141;49.234;9.326;2024-03-08T00:43:52;99651.44;;;6.83;64.31
6216;BME280;3141;49.234;9.326;2024-03-08T00:44:34;99645.75;;;6.78;64.39
6216;BME280;3141;49.234;9.326;2024-03-08T00:45:17;99653.78;;;6.77;64.40
6216;BME280;3141;49.234;9.326;2024-03-08T00:45:59;99650.56;;;6.73;64.86
6216;BME280;3141;49.234;9.326;2024-03-08T00:46:43;99651.97;;;6.77;64.90
6216;BME280;3141;49.234;9.326;2024-03-08T00:47:25;99649.50;;;6.76;64.55
6216;BME280;3141;49.234;9.326;2024-03-08T00:48:08;99652.63;;;6.70;64.92
6216;BME280;3141;49.234;9.326;2024-03-08T00:48:51;99652.06;;;6.66;65.14
6216;BME280;3141;49.234;9.326;2024-03-08T00:49:33;99654.25;;;6.61;64.99
6216;BME280;3141;49.234;9.326;2024-03-08T00:50:16;99649.13;;;6.60;65.78
6216;BME280;3141;49.234;9.326;2024-03-08T00:50:58;99652.72;;;6.59;65.85
6216;BME280;3141;49.234;9.326;2024-03-08T00:51:40;99657.66;;;6.52;65.97
6216;BME280;3141;49.234;9.326;2024-03-08T00:52:23;99649.97;;;6.60;65.91
6216;BME280;3141;49.234;9.326;2024-03-08T00:53:06;99648.19;;;6.61;65.72
6216;BME280;3141;49.234;9.326;2024-03-08T00:53:48;99646.78;;;6.57;66.24
6216;BME280;3141;49.234;9.326;2024-03-08T00:54:30;99643.03;;;6.59;65.96
6216;BME280;3141;49.234;9.326;2024-03-08T00:55:13;99651.50;;;6.63;65.67
6216;BME280;3141;49.234;9.326;2024-03-08T00:55:55;99643.03;;;6.59;65.70
6216;BME280;3141;49.234;9.326;2024-03-08T00:56:38;99644.72;;;6.60;66.08
6216;BME280;3141;49.234;9.326;2024-03-08T00:57:21;99639.47;;;6.60;65.83
6216;BME280;3141;49.234;9.326;2024-03-08T00:58:04;99638.31;;;6.53;65.86
6216;BME280;3141;49.234;9.326;2024-03-08T00:58:46;99637.19;;;6.46;66.44
6216;BME280;3141;49.234;9.326;2024-03-08T00:59:29;99639.38;;;6.41;66.40
6216;BME280;3141;49.234;9.326;2024-03-08T01:00:13;99637.19;;;6.46;66.63
6216;BME280;3141;49.234;9.326;2024-03-08T01:00:57;99643.84;;;6.50;66.55
6216;BME280;3141;49.234;9.326;2024-03-08T01:01:40;99633.84;;;6.44;66.47
6216;BME280;3141;49.234;9.326;2024-03-08T01:02:22;99630.28;;;6.45;66.64
6216;BME280;3141;49.234;9.326;2024-03-08T01:03:05;99639.53;;;6.49;66.59
6216;BME280;3141;49.234;9.326;2024-03-08T01:03:48;99635.78;;;6.42;66.65
6216;BME280;3141;49.234;9.326;2024-03-08T01:04:31;99631.22;;;6.44;66.47
6216;BME280;3141;49.234;9.326;2024-03-08T01:05:14;99641.72;;;6.44;66.59
6216;BME280;3141;49.234;9.326;2024-03-08T01:05:56;99637.88;;;6.48;66.20
6216;BME280;3141;49.234;9.326;2024-03-08T01:06:38;99630.28;;;6.45;66.60
6216;BME280;3141;49.234;9.326;2024-03-08T01:07:21;99632.19;;;6.43;66.44
6216;BME280;3141;49.234;9.326;2024-03-08T01:08:04;99635.78;;;6.42;66.59
6216;BME280;3141;49.234;9.326;2024-03-08T01:08:47;99634.97;;;6.42;66.74
6216;BME280;3141;49.234;9.326;2024-03-08T01:09:29;99634.13;;;6.41;66.61
6216;BME280;3141;49.234;9.326;2024-03-08T01:10:11;99629.94;;;6.39;66.67
6216;BME280;3141;49.234;9.326;2024-03-08T01:10:54;99629.91;;;6.29;66.91
6216;BME280;3141;49.234;9.326;2024-03-08T01:11:36;99617.50;;;6.31;67.15
6216;BME280;3141;49.234;9.326;2024-03-08T01:12:18;99622.75;;;6.31;67.14
6216;BME280;3141;49.234;9.326;2024-03-08T01:13:02;99624.09;;;6.26;67.17
6216;BME280;3141;49.234;9.326;2024-03-08T01:13:44;99621.72;;;6.23;67.14
6216;BME280;3141;49.234;9.326;2024-03-08T01:14:29;99624.34;;;6.23;67.19
6216;BME280;3141;49.234;9.326;2024-03-08T01:15:12;99626.59;;;6.27;67.43
6216;BME280;3141;49.234;9.326;2024-03-08T01:15:54;99628.13;;;6.30;67.16
6216;BME280;3141;49.234;9.326;2024-03-08T01:16:38;99620.84;;;6.33;66.64
6216;BME280;3141;49.234;9.326;2024-03-08T01:17:20;99624.00;;;6.37;66.73
6216;BME280;3141;49.234;9.326;2024-03-08T01:18:02;99618.50;;;6.40;66.47
6216;BME280;3141;49.234;9.326;2024-03-08T01:18:45;99619.59;;;6.37;66.47
6216;BME280;3141;49.234;9.326;2024-03-08T01:19:28;99623.19;;;6.36;66.67
6216;BME280;3141;49.234;9.326;2024-03-08T01:20:10;99613.75;;;6.34;66.58
6216;BME280;3141;49.234;9.326;2024-03-08T01:20:54;99609.84;;;6.28;66.77
6216;BME280;3141;49.234;9.326;2024-03-08T01:21:36;99613.16;;;6.21;67.20
6216;BME280;3141;49.234;9.326;2024-03-08T01:22:19;99612.88;;;6.24;67.06
6216;BME280;3141;49.234;9.326;2024-03-08T01:23:01;99606.44;;;6.28;66.96
6216;BME280;3141;49.234;9.326;2024-03-08T01:23:44;99610.31;;;6.33;66.76
6216;BME280;3141;49.234;9.326;2024-03-08T01:24:26;99614.88;;;6.31;66.79
6216;BME280;3141;49.234;9.326;2024-03-08T01:25:08;99609.84;;;6.28;67.00
6216;BME280;3141;49.234;9.326;2024-03-08T01:25:51;99607.78;;;6.22;67.71
6216;BME280;3141;49.234;9.326;2024-03-08T01:26:38;99612.19;;;6.22;67.26
6216;BME280;3141;49.234;9.326;2024-03-08T01:27:21;99600.28;;;6.18;67.06
6216;BME280;3141;49.234;9.326;2024-03-08T01:28:03;99602.72;;;6.10;67.73
6216;BME280;3141;49.234;9.326;2024-03-08T01:28:46;99606.22;;;6.20;67.75
6216;BME280;3141;49.234;9.326;2024-03-08T01:29:28;99608.53;;;6.13;67.77
6216;BME280;3141;49.234;9.326;2024-03-08T01:30:11;99610.22;;;6.14;67.52
6216;BME280;3141;49.234;9.326;2024-03-08T01:30:54;99603.94;;;6.26;67.13
6216;BME280;3141;49.234;9.326;2024-03-08T01:31:40;99605.84;;;6.24;67.41
6216;BME280;3141;49.234;9.326;2024-03-08T01:32:22;99605.44;;;6.29;67.09
6216;BME280;3141;49.234;9.326;2024-03-08T01:33:05;99608.63;;;6.23;67.46
6216;BME280;3141;49.234;9.326;2024-03-08T01:33:48;99599.72;;;6.14;67.70
6216;BME280;3141;49.234;9.326;2024-03-08T01:34:32;99595.81;;;6.09;67.58
6216;BME280;3141;49.234;9.326;2024-03-08T01:35:15;99601.94;;;6.19;67.81
6216;BME280;3141;49.234;9.326;2024-03-08T01:35:58;99599.19;;;6.20;67.82
6216;BME280;3141;49.234;9.326;2024-03-08T01:36:40;99599.91;;;6.22;67.32
6216;BME280;3141;49.234;9.326;2024-03-08T01:37:22;99600.34;;;6.27;67.17
6216;BME280;3141;49.234;9.326;2024-03-08T01:38:04;99599.91;;;6.22;66.97
6216;BME280;3141;49.234;9.326;2024-03-08T01:38:47;99599.47;;;6.17;67.32
6216;BME280;3141;49.234;9.326;2024-03-08T01:39:29;99595.16;;;6.16;67.19
6216;BME280;3141;49.234;9.326;2024-03-08T01:40:11;99601.78;;;6.11;67.89
6216;BME280;3141;49.234;9.326;2024-03-08T01:40:54;99590.84;;;6.06;68.21
6216;BME280;3141;49.234;9.326;2024-03-08T01:41:36;99598.31;;;6.10;68.12
6216;BME280;3141;49.234;9.326;2024-03-08T01:42:18;99592.44;;;6.18;67.37
6216;BME280;3141;49.234;9.326;2024-03-08T01:43:22;99596.91;;;6.06;67.94
6216;BME280;3141;49.234;9.326;2024-03-08T01:44:07;99594.56;;;6.13;67.59
6216;BME280;3141;49.234;9.326;2024-03-08T01:44:49;99589.22;;;6.14;67.46
6216;BME280;3141;49.234;9.326;2024-03-08T01:45:31;99590.44;;;6.10;67.77
6216;BME280;3141;49.234;9.326;2024-03-08T01:46:19;99590.38;;;6.01;67.51
6216;BME280;3141;49.234;9.326;2024-03-08T01:47:04;99583.91;;;6.05;67.78
6216;BME280;3141;49.234;9.326;2024-03-08T01:47:47;99588.06;;;6.07;67.74
6216;BME280;3141;49.234;9.326;2024-03-08T01:48:30;99597.47;;;6.10;67.71
6216;BME280;3141;49.234;9.326;2024-03-08T01:49:13;99590.84;;;6.06;67.68
6216;BME280;3141;49.234;9.326;2024-03-08T01:49:56;99591.91;;;6.03;67.97
6216;BME280;3141;49.234;9.326;2024-03-08T01:50:38;99586.72;;;5.92;68.01
6216;BME280;3141;49.234;9.326;2024-03-08T01:51:21;99585.50;;;5.96;67.64
6216;BME280;3141;49.234;9.326;2024-03-08T01:52:03;99580.97;;;5.98;67.77
6216;BME280;3141;49.234;9.326;2024-03-08T01:52:46;99574.75;;;5.99;67.51
6216;BME280;3141;49.234;9.326;2024-03-08T01:53:30;99580.84;;;6.00;68.14
6216;BME280;3141;49.234;9.326;2024-03-08T01:54:14;99584.19;;;6.02;67.77
6216;BME280;3141;49.234;9.326;2024-03-08T01:55:02;99578.94;;;6.02;67.48
6216;BME280;3141;49.234;9.326;2024-03-08T01:55:57;99588.13;;;5.96;67.77
6216;BME280;3141;49.234;9.326;2024-03-08T01:56:40;99583.59;;;5.98;67.71
6216;BME280;3141;49.234;9.326;2024-03-08T01:57:22;99580.09;;;5.88;68.09
6216;BME280;3141;49.234;9.326;2024-03-08T01:58:05;99583.47;;;6.00;68.42
6216;BME280;3141;49.234;9.326;2024-03-08T01:58:47;99582.13;;;6.05;68.14
6216;BME280;3141;49.234;9.326;2024-03-08T01:59:29;99585.78;;;5.93;68.07
6216;BME280;3141;49.234;9.326;2024-03-08T02:00:12;99584.19;;;6.02;67.71
6216;BME280;3141;49.234;9.326;2024-03-08T02:00:59;99583.28;;;6.12;67.57
6216;BME280;3141;49.234;9.326;2024-03-08T02:01:42;99581.47;;;6.13;67.39
6216;BME280;3141;49.234;9.326;2024-03-08T02:02:25;99583.13;;;6.14;67.22
6216;BME280;3141;49.234;9.326;2024-03-08T02:03:09;99577.66;;;5.96;67.82
6216;BME280;3141;49.234;9.326;2024-03-08T02:03:52;99573.25;;;5.97;68.15
6216;BME280;3141;49.234;9.326;2024-03-08T02:04:34;99573.28;;;6.06;68.09
6216;BME280;3141;49.234;9.326;2024-03-08T02:05:18;99574.69;;;6.10;67.69
6216;BME280;3141;49.234;9.326;2024-03-08T02:06:01;99572.34;;;6.07;67.89
6216;BME280;3141;49.234;9.326;2024-03-08T02:06:43;99569.38;;;6.01;67.85
6216;BME280;3141;49.234;9.326;2024-03-08T02:07:27;99569.84;;;6.06;67.72
6216;BME280;3141;49.234;9.326;2024-03-08T02:08:09;99563.19;;;6.02;68.02
6216;BME280;3141;49.234;9.326;2024-03-08T02:08:56;99567.28;;;5.95;68.16
6216;BME280;3141;49.234;9.326;2024-03-08T02:09:39;99566.84;;;5.90;68.34
6216;BME280;3141;49.234;9.326;2024-03-08T02:10:21;99561.78;;;5.98;68.29
6216;BME280;3141;49.234;9.326;2024-03-08T02:11:05;99563.69;;;5.96;67.92
6216;BME280;3141;49.234;9.326;2024-03-08T02:11:48;99562.16;;;5.93;67.79
6216;BME280;3141;49.234;9.326;2024-03-08T02:12:30;99561.72;;;5.88;68.32
6216;BME280;3141;49.234;9.326;2024-03-08T02:13:12;99560.03;;;5.87;68.81
6216;BME280;3141;49.234;9.326;2024-03-08T02:13:55;99559.09;;;5.88;68.62
6216;BME280;3141;49.234;9.326;2024-03-08T02:14:37;99561.19;;;5.94;68.22
6216;BME280;3141;49.234;9.326;2024-03-08T02:15:22;99560.84;;;5.99;67.81
6216;BME280;3141;49.234;9.326;2024-03-08T02:16:04;99552.13;;;5.98;68.10
6216;BME280;3141;49.234;9.326;2024-03-08T02:16:49;99552.88;;;5.89;67.86
6216;BME280;3141;49.234;9.326;2024-03-08T02:17:33;99549.06;;;5.93;67.94
6216;BME280;3141;49.234;9.326;2024-03-08T02:18:15;99553.31;;;5.94;68.15
6216;BME280;3141;49.234;9.326;2024-03-08T02:18:59;99550.00;;;5.92;67.93
6216;BME280;3141;49.234;9.326;2024-03-08T02:19:42;99550.97;;;5.91;67.79
6216;BME280;3141;49.234;9.326;2024-03-08T02:20:24;99544.75;;;5.92;68.38
6216;BME280;3141;49.234;9.326;2024-03-08T02:21:07;99548.78;;;5.96;68.27
6216;BME280;3141;49.234;9.326;2024-03-08T02:21:50;99544.13;;;6.00;67.87
6216;BME280;3141;49.234;9.326;2024-03-08T02:22:33;99543.22;;;5.90;68.38
6216;BME280;3141;49.234;9.326;2024-03-08T02:23:15;99544.56;;;5.84;68.04
6216;BME280;3141;49.234;9.326;2024-03-08T02:23:58;99543.03;;;5.81;68.90
6216;BME280;3141;49.234;9.326;2024-03-08T02:24:41;99540.03;;;5.86;68.24
6216;BME280;3141;49.234;9.326;2024-03-08T02:25:23;99540.22;;;5.94;68.29
6216;BME280;3141;49.234;9.326;2024-03-08T02:26:06;99543.59;;;5.85;68.28
6216;BME280;3141;49.234;9.326;2024-03-08T02:26:49;99541.34;;;5.80;68.63
6216;BME280;3141;49.234;9.326;2024-03-08T02:27:31;99540.75;;;5.88;68.18
6216;BME280;3141;49.234;9.326;2024-03-08T02:28:15;99543.50;;;5.87;68.24
6216;BME280;3141;49.234;9.326;2024-03-08T02:28:57;99541.88;;;5.95;68.32
6216;BME280;3141;49.234;9.326;2024-03-08T02:29:40;99545.72;;;5.91;68.10
6216;BME280;3141;49.234;9.326;2024-03-08T02:30:24;99550.00;;;5.92;68.38
6216;BME280;3141;49.234;9.326;2024-03-08T02:31:08;99534.31;;;5.81;68.85
6216;BME280;3141;49.234;9.326;2024-03-08T02:31:51;99545.06;;;5.78;68.80
6216;BME280;3141;49.234;9.326;2024-03-08T02:32:33;99536.38;;;5.77;68.90
6216;BME280;3141;49.234;9.326;2024-03-08T02:33:17;99536.22;;;5.79;68.85
6216;BME280;3141;49.234;9.326;2024-03-08T02:34:00;99541.56;;;5.88;68.45
6216;BME280;3141;49.234;9.326;2024-03-08T02:34:42;99536.72;;;5.84;68.67
6216;BME280;3141;49.234;9.326;2024-03-08T02:35:24;99540.97;;;5.85;68.29
6216;BME280;3141;49.234;9.326;2024-03-08T02:36:07;99534.78;;;5.86;68.58
6216;BME280;3141;49.234;9.326;2024-03-08T02:36:49;99535.88;;;5.83;68.41
6216;BME280;3141;49.234;9.326;2024-03-08T02:37:32;99536.84;;;5.82;68.56
6216;BME280;3141;49.234;9.326;2024-03-08T02:38:16;99537.41;;;5.86;68.17
6216;BME280;3141;49.234;9.326;2024-03-08T02:38:58;99536.72;;;5.84;68.47
6216;BME280;3141;49.234;9.326;2024-03-08T02:39:40;99532.44;;;5.83;68.43
6216;BME280;3141;49.234;9.326;2024-03-08T02:40:23;99532.44;;;5.83;68.52
6216;BME280;3141;49.234;9.326;2024-03-08T02:41:05;99540.41;;;5.81;68.53
6216;BME280;3141;49.234;9.326;2024-03-08T02:41:48;99531.31;;;5.85;68.42
6216;BME280;3141;49.234;9.326;2024-03-08T02:42:30;99535.38;;;5.78;68.33
6216;BME280;3141;49.234;9.326;2024-03-08T02:43:14;99530.53;;;5.74;68.66
6216;BME280;3141;49.234;9.326;2024-03-08T02:44:04;99523.63;;;5.73;68.88
6216;BME280;3141;49.234;9.326;2024-03-08T02:44:46;99529.97;;;5.70;69.01
6216;BME280;3141;49.234;9.326;2024-03-08T02:45:29;99533.16;;;5.74;68.87
6216;BME280;3141;49.234;9.326;2024-03-08T02:46:11;99526.78;;;5.67;69.70
6216;BME280;3141;49.234;9.326;2024-03-08T02:46:54;99529.91;;;5.61;69.60
6216;BME280;3141;49.234;9.326;2024-03-08T02:47:37;99529.53;;;5.65;69.72
6216;BME280;3141;49.234;9.326;2024-03-08T02:48:19;99529.56;;;5.75;69.37
6216;BME280;3141;49.234;9.326;2024-03-08T02:49:03;99533.34;;;5.61;69.33
6216;BME280;3141;49.234;9.326;2024-03-08T02:49:46;99526.78;;;5.67;69.33
6216;BME280;3141;49.234;9.326;2024-03-08T02:50:28;99521.25;;;5.70;68.98
6216;BME280;3141;49.234;9.326;2024-03-08T02:51:10;99530.88;;;5.60;69.61
6216;BME280;3141;49.234;9.326;2024-03-08T02:51:53;99520.13;;;5.63;69.28
6216;BME280;3141;49.234;9.326;2024-03-08T02:52:35;99519.41;;;5.61;69.84
6216;BME280;3141;49.234;9.326;2024-03-08T02:53:18;99521.44;;;5.57;69.77
6216;BME280;3141;49.234;9.326;2024-03-08T02:54:01;99522.16;;;5.59;69.85
6216;BME280;3141;49.234;9.326;2024-03-08T02:54:43;99521.41;;;5.48;69.88
6216;BME280;3141;49.234;9.326;2024-03-08T02:55:25;99524.06;;;5.57;69.99
6216;BME280;3141;49.234;9.326;2024-03-08T02:56:08;99528.06;;;5.52;70.13
6216;BME280;3141;49.234;9.326;2024-03-08T02:56:54;99528.38;;;5.58;69.74
6216;BME280;3141;49.234;9.326;2024-03-08T02:57:37;99526.03;;;5.55;69.90
6216;BME280;3141;49.234;9.326;2024-03-08T02:58:19;99520.91;;;5.54;69.56
6216;BME280;3141;49.234;9.326;2024-03-08T02:59:01;99526.81;;;5.56;69.59
6216;BME280;3141;49.234;9.326;2024-03-08T02:59:44;99515.72;;;5.63;69.38
6216;BME280;3141;49.234;9.326;2024-03-08T03:00:27;99526.91;;;5.45;70.26
6216;BME280;3141;49.234;9.326;2024-03-08T03:01:10;99513.94;;;5.43;69.78
6216;BME280;3141;49.234;9.326;2024-03-08T03:01:52;99514.75;;;5.44;69.87
6216;BME280;3141;49.234;9.326;2024-03-08T03:02:35;99516.91;;;5.39;70.93
6216;BME280;3141;49.234;9.326;2024-03-08T03:03:18;99523.31;;;5.46;70.24
6216;BME280;3141;49.234;9.326;2024-03-08T03:04:00;99518.38;;;5.52;70.06
6216;BME280;3141;49.234;9.326;2024-03-08T03:04:42;99525.94;;;5.46;70.37
6216;BME280;3141;49.234;9.326;2024-03-08T03:05:25;99522.59;;;5.44;70.60
6216;BME280;3141;49.234;9.326;2024-03-08T03:06:07;99512.91;;;5.35;70.98
6216;BME280;3141;49.234;9.326;2024-03-08T03:06:50;99510.47;;;5.43;70.98
6216;BME280;3141;49.234;9.326;2024-03-08T03:07:33;99514.50;;;5.47;70.38
6216;BME280;3141;49.234;9.326;2024-03-08T03:08:18;99514.16;;;5.40;70.26
6216;BME280;3141;49.234;9.326;2024-03-08T03:09:02;99515.19;;;5.49;70.36
6216;BME280;3141;49.234;9.326;2024-03-08T03:09:44;99511.41;;;5.42;70.53
6216;BME280;3141;49.234;9.326;2024-03-08T03:10:27;99515.97;;;5.40;70.81
6216;BME280;3141;49.234;9.326;2024-03-08T03:11:09;99511.34;;;5.32;70.78
6216;BME280;3141;49.234;9.326;2024-03-08T03:11:52;99508.03;;;5.30;70.92
6216;BME280;3141;49.234;9.326;2024-03-08T03:12:34;99506.16;;;5.42;71.01
6216;BME280;3141;49.234;9.326;2024-03-08T03:13:16;99510.06;;;5.47;70.25
6216;BME280;3141;49.234;9.326;2024-03-08T03:13:58;99516.59;;;5.53;70.10
6216;BME280;3141;49.234;9.326;2024-03-08T03:14:41;99511.03;;;5.46;69.98
6216;BME280;3141;49.234;9.326;2024-03-08T03:15:23;99504.25;;;5.44;70.19
6216;BME280;3141;49.234;9.326;2024-03-08T03:16:05;99502.59;;;5.43;70.41
6216;BME280;3141;49.234;9.326;2024-03-08T03:16:48;99507.28;;;5.39;70.32
6216;BME280;3141;49.234;9.326;2024-03-08T03:17:30;99503.09;;;5.37;70.80
6216;BME280;3141;49.234;9.326;2024-03-08T03:18:12;99499.22;;;5.31;70.77
6216;BME280;3141;49.234;9.326;2024-03-08T03:18:55;99502.66;;;5.32;70.71
6216;BME280;3141;49.234;9.326;2024-03-08T03:19:42;99505.28;;;5.32;70.55
6216;BME280;3141;49.234;9.326;2024-03-08T03:20:25;99496.78;;;5.39;70.52
6216;BME280;3141;49.234;9.326;2024-03-08T03:21:14;99501.75;;;5.42;70.73
6216;BME280;3141;49.234;9.326;2024-03-08T03:21:56;99496.47;;;5.33;70.75
6216;BME280;3141;49.234;9.326;2024-03-08T03:22:40;99496.22;;;5.36;70.48
6216;BME280;3141;49.234;9.326;2024-03-08T03:23:23;99499.72;;;5.25;70.72
6216;BME280;3141;49.234;9.326;2024-03-08T03:24:06;99505.03;;;5.35;71.04
6216;BME280;3141;49.234;9.326;2024-03-08T03:24:52;99498.00;;;5.35;71.08
6216;BME280;3141;49.234;9.326;2024-03-08T03:25:35;99499.97;;;5.43;70.84
6216;BME280;3141;49.234;9.326;2024-03-08T03:26:17;99498.69;;;5.37;70.31
6216;BME280;3141;49.234;9.326;2024-03-08T03:27:00;99500.03;;;5.32;70.23
6216;BME280;3141;49.234;9.326;2024-03-08T03:27:43;99499.31;;;5.30;70.61
6216;BME280;3141;49.234;9.326;2024-03-08T03:28:25;99494.88;;;5.41;70.84
6216;BME280;3141;49.234;9.326;2024-03-08T03:29:08;99487.19;;;5.49;70.33
6216;BME280;3141;49.234;9.326;2024-03-08T03:29:50;99496.59;;;5.52;69.91
6216;BME280;3141;49.234;9.326;2024-03-08T03:30:34;99495.94;;;5.39;70.39
6216;BME280;3141;49.234;9.326;2024-03-08T03:31:16;99492.03;;;5.33;70.06
6216;BME280;3141;49.234;9.326;2024-03-08T03:32:00;99494.44;;;5.36;70.89
6216;BME280;3141;49.234;9.326;2024-03-08T03:32:44;99486.75;;;5.24;70.64
6216;BME280;3141;49.234;9.326;2024-03-08T03:33:29;99489.03;;;5.17;71.30
6216;BME280;3141;49.234;9.326;2024-03-08T03:34:11;99491.59;;;5.28;71.01
6216;BME280;3141;49.234;9.326;2024-03-08T03:34:54;99491.72;;;5.27;70.63
6216;BME280;3141;49.234;9.326;2024-03-08T03:35:36;99494.28;;;5.38;70.37
6216;BME280;3141;49.234;9.326;2024-03-08T03:36:19;99494.78;;;5.32;70.97
6216;BME280;3141;49.234;9.326;2024-03-08T03:37:02;99492.88;;;5.34;70.56
6216;BME280;3141;49.234;9.326;2024-03-08T03:37:45;99485.16;;;5.32;70.23
6216;BME280;3141;49.234;9.326;2024-03-08T03:38:33;99485.66;;;5.26;70.79
6216;BME280;3141;49.234;9.326;2024-03-08T03:39:16;99488.16;;;5.28;70.97
6216;BME280;3141;49.234;9.326;2024-03-08T03:40:02;99486.59;;;5.25;70.97
6216;BME280;3141;49.234;9.326;2024-03-08T03:40:44;99482.22;;;5.26;70.80
6216;BME280;3141;49.234;9.326;2024-03-08T03:41:28;99484.69;;;5.27;70.62
6216;BME280;3141;49.234;9.326;2024-03-08T03:42:10;99490.84;;;5.37;70.29
6216;BME280;3141;49.234;9.326;2024-03-08T03:42:52;99488.34;;;5.36;70.10
6216;BME280;3141;49.234;9.326;2024-03-08T03:43:35;99479.63;;;5.35;70.33
6216;BME280;3141;49.234;9.326;2024-03-08T03:44:18;99484.53;;;5.40;70.33
6216;BME280;3141;49.234;9.326;2024-03-08T03:45:00;99478.84;;;5.35;70.30
6216;BME280;3141;49.234;9.326;2024-03-08T03:45:42;99479.50;;;5.37;70.26
6216;BME280;3141;49.234;9.326;2024-03-08T03:46:24;99471.66;;;5.37;70.57
6216;BME280;3141;49.234;9.326;2024-03-08T03:47:09;99480.22;;;5.39;70.54
6216;BME280;3141;49.234;9.326;2024-03-08T03:47:51;99476.38;;;5.43;70.36
6216;BME280;3141;49.234;9.326;2024-03-08T03:48:34;99478.03;;;5.44;69.72
6216;BME280;3141;49.234;9.326;2024-03-08T03:49:16;99475.41;;;5.44;69.72
6216;BME280;3141;49.234;9.326;2024-03-08T03:49:59;99481.19;;;5.38;70.10
6216;BME280;3141;49.234;9.326;2024-03-08T03:50:44;99469.72;;;5.39;70.46
6216;BME280;3141;49.234;9.326;2024-03-08T03:51:27;99477.16;;;5.34;70.44
6216;BME280;3141;49.234;9.326;2024-03-08T03:52:11;99472.75;;;5.34;69.94
6216;BME280;3141;49.234;9.326;2024-03-08T03:52:53;99472.56;;;5.47;69.70
6216;BME280;3141;49.234;9.326;2024-03-08T03:53:35;99471.28;;;5.41;70.18
6216;BME280;3141;49.234;9.326;2024-03-08T03:54:18;99467.41;;;5.45;69.94
6216;BME280;3141;49.234;9.326;2024-03-08T03:55:01;99476.38;;;5.43;70.03
6216;BME280;3141;49.234;9.326;2024-03-08T03:55:43;99474.03;;;5.40;69.82
6216;BME280;3141;49.234;9.326;2024-03-08T03:56:26;99468.34;;;5.35;70.25
6216;BME280;3141;49.234;9.326;2024-03-08T03:57:09;99472.47;;;5.37;69.68